sensor_id;sensor_type;location;lat;lon;timestamp;P1;durP1;ratioP1;P2;durP2;ratioP2
52764;SDS011;38650;44.536;18.664;2023-03-13T00:03:38;38.15;;;25.80;;
52764;SDS011;38650;44.536;18.664;2023-03-13T00:06:04;41.03;;;26.67;;
52764;SDS011;38650;44.536;18.664;2023-03-13T00:08:30;34.15;;;23.38;;
52764;SDS011;38650;44.536;18.664;2023-03-13T00:10:55;32.67;;;22.23;;
52764;SDS011;38650;44.536;18.664;2023-03-13T00:13:21;35.53;;;24.60;;
52764;SDS011;38650;44.536;18.664;2023-03-13T00:15:47;28.65;;;20.00;;
52764;SDS011;38650;44.536;18.664;2023-03-13T00:18:13;26.02;;;17.58;;
52764;SDS011;38650;44.536;18.664;2023-03-13T00:20:38;24.50;;;17.10;;
52764;SDS011;38650;44.536;18.664;2023-03-13T00:23:04;25.25;;;16.80;;
52764;SDS011;38650;44.536;18.664;2023-03-13T00:25:30;23.30;;;16.20;;
52764;SDS011;38650;44.536;18.664;2023-03-13T00:27:55;27.63;;;17.10;;
52764;SDS011;38650;44.536;18.664;2023-03-13T00:30:21;22.63;;;16.30;;
52764;SDS011;38650;44.536;18.664;2023-03-13T00:32:47;25.70;;;17.20;;
52764;SDS011;38650;44.536;18.664;2023-03-13T00:35:13;44.17;;;27.40;;
52764;SDS011;38650;44.536;18.664;2023-03-13T00:37:39;37.20;;;24.60;;
52764;SDS011;38650;44.536;18.664;2023-03-13T00:40:06;28.00;;;19.70;;
52764;SDS011;38650;44.536;18.664;2023-03-13T00:42:33;28.27;;;18.98;;
52764;SDS011;38650;44.536;18.664;2023-03-13T00:44:59;25.13;;;17.50;;
52764;SDS011;38650;44.536;18.664;2023-03-13T00:47:24;23.77;;;16.90;;
52764;SDS011;38650;44.536;18.664;2023-03-13T00:49:50;21.38;;;15.40;;
52764;SDS011;38650;44.536;18.664;2023-03-13T00:52:17;23.27;;;15.70;;
52764;SDS011;38650;44.536;18.664;2023-03-13T00:54:42;23.45;;;16.45;;
52764;SDS011;38650;44.536;18.664;2023-03-13T00:57:08;21.02;;;15.10;;
52764;SDS011;38650;44.536;18.664;2023-03-13T00:59:34;28.17;;;18.70;;
52764;SDS011;38650;44.536;18.664;2023-03-13T01:02:00;28.63;;;19.25;;
52764;SDS011;38650;44.536;18.664;2023-03-13T01:04:25;28.52;;;19.05;;
52764;SDS011;38650;44.536;18.664;2023-03-13T01:06:51;22.77;;;14.77;;
52764;SDS011;38650;44.536;18.664;2023-03-13T01:09:17;20.73;;;14.32;;
52764;SDS011;38650;44.536;18.664;2023-03-13T01:11:44;41.42;;;27.52;;
52764;SDS011;38650;44.536;18.664;2023-03-13T01:14:11;42.75;;;26.33;;
52764;SDS011;38650;44.536;18.664;2023-03-13T01:16:41;37.83;;;23.95;;
52764;SDS011;38650;44.536;18.664;2023-03-13T01:19:08;30.20;;;20.23;;
52764;SDS011;38650;44.536;18.664;2023-03-13T01:21:36;28.65;;;20.08;;
52764;SDS011;38650;44.536;18.664;2023-03-13T01:24:02;29.25;;;19.33;;
52764;SDS011;38650;44.536;18.664;2023-03-13T01:26:28;30.02;;;19.25;;
52764;SDS011;38650;44.536;18.664;2023-03-13T01:28:54;40.83;;;26.40;;
52764;SDS011;38650;44.536;18.664;2023-03-13T01:31:21;27.20;;;19.45;;
52764;SDS011;38650;44.536;18.664;2023-03-13T01:33:55;27.83;;;19.75;;
52764;SDS011;38650;44.536;18.664;2023-03-13T01:36:23;26.10;;;17.98;;
52764;SDS011;38650;44.536;18.664;2023-03-13T01:38:50;28.63;;;20.45;;
52764;SDS011;38650;44.536;18.664;2023-03-13T01:41:18;28.42;;;19.33;;
52764;SDS011;38650;44.536;18.664;2023-03-13T01:43:45;24.77;;;17.08;;
52764;SDS011;38650;44.536;18.664;2023-03-13T01:46:12;20.13;;;15.50;;
52764;SDS011;38650;44.536;18.664;2023-03-13T01:48:44;27.40;;;19.98;;
52764;SDS011;38650;44.536;18.664;2023-03-13T01:51:34;29.15;;;19.80;;
52764;SDS011;38650;44.536;18.664;2023-03-13T01:59:39;21.77;;;15.15;;
52764;SDS011;38650;44.536;18.664;2023-03-13T02:02:12;22.63;;;15.35;;
52764;SDS011;38650;44.536;18.664;2023-03-13T02:04:40;20.13;;;13.93;;
52764;SDS011;38650;44.536;18.664;2023-03-13T02:07:11;20.35;;;14.60;;
52764;SDS011;38650;44.536;18.664;2023-03-13T02:09:43;22.88;;;16.05;;
52764;SDS011;38650;44.536;18.664;2023-03-13T02:12:17;18.75;;;12.18;;
52764;SDS011;38650;44.536;18.664;2023-03-13T02:14:51;18.52;;;12.68;;
52764;SDS011;38650;44.536;18.664;2023-03-13T02:17:18;25.30;;;16.58;;
52764;SDS011;38650;44.536;18.664;2023-03-13T02:19:45;16.30;;;12.25;;
52764;SDS011;38650;44.536;18.664;2023-03-13T02:22:18;16.20;;;12.00;;
52764;SDS011;38650;44.536;18.664;2023-03-13T02:27:24;20.13;;;13.88;;
52764;SDS011;38650;44.536;18.664;2023-03-13T02:29:50;17.45;;;12.30;;
52764;SDS011;38650;44.536;18.664;2023-03-13T02:32:17;21.77;;;14.52;;
52764;SDS011;38650;44.536;18.664;2023-03-13T02:34:43;16.67;;;13.00;;
52764;SDS011;38650;44.536;18.664;2023-03-13T02:37:11;18.80;;;13.88;;
52764;SDS011;38650;44.536;18.664;2023-03-13T02:39:40;20.20;;;14.00;;
52764;SDS011;38650;44.536;18.664;2023-03-13T02:42:09;19.95;;;13.55;;
52764;SDS011;38650;44.536;18.664;2023-03-13T02:44:40;15.85;;;11.70;;
52764;SDS011;38650;44.536;18.664;2023-03-13T02:47:06;17.02;;;12.63;;
52764;SDS011;38650;44.536;18.664;2023-03-13T02:49:35;15.30;;;9.75;;
52764;SDS011;38650;44.536;18.664;2023-03-13T02:54:38;12.20;;;8.80;;
52764;SDS011;38650;44.536;18.664;2023-03-13T02:57:05;12.50;;;8.93;;
52764;SDS011;38650;44.536;18.664;2023-03-13T02:59:31;10.60;;;7.80;;
52764;SDS011;38650;44.536;18.664;2023-03-13T03:01:57;12.07;;;8.48;;
52764;SDS011;38650;44.536;18.664;2023-03-13T03:04:24;8.38;;;6.55;;
52764;SDS011;38650;44.536;18.664;2023-03-13T03:06:50;10.27;;;7.57;;
52764;SDS011;38650;44.536;18.664;2023-03-13T03:09:17;9.73;;;7.15;;
52764;SDS011;38650;44.536;18.664;2023-03-13T03:11:44;15.02;;;9.80;;
52764;SDS011;38650;44.536;18.664;2023-03-13T03:14:10;12.63;;;8.70;;
52764;SDS011;38650;44.536;18.664;2023-03-13T03:16:37;11.70;;;7.72;;
52764;SDS011;38650;44.536;18.664;2023-03-13T03:19:03;11.18;;;7.97;;
52764;SDS011;38650;44.536;18.664;2023-03-13T03:21:29;12.25;;;7.25;;
52764;SDS011;38650;44.536;18.664;2023-03-13T03:23:54;8.77;;;6.88;;
52764;SDS011;38650;44.536;18.664;2023-03-13T03:26:20;13.15;;;9.50;;
52764;SDS011;38650;44.536;18.664;2023-03-13T03:28:46;10.85;;;8.05;;
52764;SDS011;38650;44.536;18.664;2023-03-13T03:31:13;11.98;;;8.10;;
52764;SDS011;38650;44.536;18.664;2023-03-13T03:33:39;10.15;;;7.45;;
52764;SDS011;38650;44.536;18.664;2023-03-13T03:36:07;9.80;;;7.40;;
52764;SDS011;38650;44.536;18.664;2023-03-13T03:38:41;8.93;;;5.82;;
52764;SDS011;38650;44.536;18.664;2023-03-13T03:41:07;9.45;;;6.60;;
52764;SDS011;38650;44.536;18.664;2023-03-13T03:43:35;8.30;;;5.75;;
52764;SDS011;38650;44.536;18.664;2023-03-13T03:46:00;15.38;;;10.73;;
52764;SDS011;38650;44.536;18.664;2023-03-13T03:48:27;11.68;;;8.15;;
52764;SDS011;38650;44.536;18.664;2023-03-13T03:50:53;11.05;;;7.45;;
52764;SDS011;38650;44.536;18.664;2023-03-13T03:53:19;9.20;;;8.07;;
52764;SDS011;38650;44.536;18.664;2023-03-13T03:55:45;10.90;;;8.15;;
52764;SDS011;38650;44.536;18.664;2023-03-13T03:58:10;12.60;;;8.80;;
52764;SDS011;38650;44.536;18.664;2023-03-13T04:00:36;16.42;;;12.23;;
52764;SDS011;38650;44.536;18.664;2023-03-13T04:03:02;12.13;;;9.60;;
52764;SDS011;38650;44.536;18.664;2023-03-13T04:05:28;14.77;;;9.88;;
52764;SDS011;38650;44.536;18.664;2023-03-13T04:07:54;14.60;;;9.85;;
52764;SDS011;38650;44.536;18.664;2023-03-13T04:10:19;13.77;;;8.90;;
52764;SDS011;38650;44.536;18.664;2023-03-13T04:12:45;14.07;;;10.20;;
52764;SDS011;38650;44.536;18.664;2023-03-13T04:15:12;12.48;;;8.68;;
52764;SDS011;38650;44.536;18.664;2023-03-13T04:17:38;11.38;;;8.15;;
52764;SDS011;38650;44.536;18.664;2023-03-13T04:20:03;10.43;;;6.70;;
52764;SDS011;38650;44.536;18.664;2023-03-13T04:22:30;8.05;;;6.30;;
52764;SDS011;38650;44.536;18.664;2023-03-13T04:24:56;9.35;;;6.85;;
52764;SDS011;38650;44.536;18.664;2023-03-13T04:27:22;9.65;;;6.45;;
52764;SDS011;38650;44.536;18.664;2023-03-13T04:29:47;7.10;;;5.70;;
52764;SDS011;38650;44.536;18.664;2023-03-13T04:32:13;9.80;;;6.68;;
52764;SDS011;38650;44.536;18.664;2023-03-13T04:34:39;10.23;;;7.00;;
52764;SDS011;38650;44.536;18.664;2023-03-13T04:37:04;9.10;;;6.95;;
52764;SDS011;38650;44.536;18.664;2023-03-13T04:39:30;7.93;;;6.18;;
52764;SDS011;38650;44.536;18.664;2023-03-13T04:41:56;7.32;;;6.35;;
52764;SDS011;38650;44.536;18.664;2023-03-13T04:44:21;6.78;;;5.38;;
52764;SDS011;38650;44.536;18.664;2023-03-13T04:46:47;6.07;;;5.10;;
52764;SDS011;38650;44.536;18.664;2023-03-13T04:49:13;6.63;;;5.15;;
52764;SDS011;38650;44.536;18.664;2023-03-13T04:51:40;6.85;;;5.28;;
52764;SDS011;38650;44.536;18.664;2023-03-13T04:54:07;6.93;;;5.65;;
52764;SDS011;38650;44.536;18.664;2023-03-13T04:56:32;8.13;;;6.55;;
52764;SDS011;38650;44.536;18.664;2023-03-13T04:58:58;8.25;;;6.10;;
52764;SDS011;38650;44.536;18.664;2023-03-13T05:01:24;8.95;;;5.85;;
52764;SDS011;38650;44.536;18.664;2023-03-13T05:03:49;9.73;;;7.13;;
52764;SDS011;38650;44.536;18.664;2023-03-13T05:06:15;9.50;;;7.50;;
52764;SDS011;38650;44.536;18.664;2023-03-13T05:08:41;14.10;;;9.15;;
52764;SDS011;38650;44.536;18.664;2023-03-13T05:11:07;12.45;;;9.50;;
52764;SDS011;38650;44.536;18.664;2023-03-13T05:13:33;14.77;;;10.13;;
52764;SDS011;38650;44.536;18.664;2023-03-13T05:15:59;16.33;;;11.02;;
52764;SDS011;38650;44.536;18.664;2023-03-13T05:18:25;14.68;;;10.02;;
52764;SDS011;38650;44.536;18.664;2023-03-13T05:20:51;18.33;;;12.85;;
52764;SDS011;38650;44.536;18.664;2023-03-13T05:23:17;20.88;;;13.90;;
52764;SDS011;38650;44.536;18.664;2023-03-13T05:25:42;24.83;;;17.17;;
52764;SDS011;38650;44.536;18.664;2023-03-13T05:28:08;27.73;;;17.92;;
52764;SDS011;38650;44.536;18.664;2023-03-13T05:30:34;29.40;;;19.65;;
52764;SDS011;38650;44.536;18.664;2023-03-13T05:32:59;39.05;;;24.58;;
52764;SDS011;38650;44.536;18.664;2023-03-13T05:35:25;25.98;;;18.80;;
52764;SDS011;38650;44.536;18.664;2023-03-13T05:37:51;26.80;;;18.05;;
52764;SDS011;38650;44.536;18.664;2023-03-13T05:40:16;26.27;;;17.98;;
52764;SDS011;38650;44.536;18.664;2023-03-13T05:42:43;55.20;;;35.13;;
52764;SDS011;38650;44.536;18.664;2023-03-13T05:45:09;39.30;;;28.25;;
52764;SDS011;38650;44.536;18.664;2023-03-13T05:47:36;47.90;;;32.72;;
52764;SDS011;38650;44.536;18.664;2023-03-13T05:50:03;38.70;;;26.52;;
52764;SDS011;38650;44.536;18.664;2023-03-13T05:52:30;34.03;;;24.95;;
52764;SDS011;38650;44.536;18.664;2023-03-13T05:54:55;32.35;;;22.70;;
52764;SDS011;38650;44.536;18.664;2023-03-13T05:57:21;32.58;;;23.05;;
52764;SDS011;38650;44.536;18.664;2023-03-13T05:59:47;30.73;;;22.08;;
52764;SDS011;38650;44.536;18.664;2023-03-13T06:02:12;30.17;;;21.15;;
52764;SDS011;38650;44.536;18.664;2023-03-13T06:04:39;29.83;;;20.52;;
52764;SDS011;38650;44.536;18.664;2023-03-13T06:07:05;27.88;;;19.60;;
52764;SDS011;38650;44.536;18.664;2023-03-13T06:09:31;52.08;;;36.25;;
52764;SDS011;38650;44.536;18.664;2023-03-13T06:11:57;44.78;;;31.02;;
52764;SDS011;38650;44.536;18.664;2023-03-13T06:14:22;40.70;;;28.40;;
52764;SDS011;38650;44.536;18.664;2023-03-13T06:16:48;42.35;;;29.42;;
52764;SDS011;38650;44.536;18.664;2023-03-13T06:19:14;38.55;;;28.33;;
52764;SDS011;38650;44.536;18.664;2023-03-13T06:21:40;39.05;;;29.08;;
52764;SDS011;38650;44.536;18.664;2023-03-13T06:24:06;44.05;;;30.35;;
52764;SDS011;38650;44.536;18.664;2023-03-13T06:26:32;47.58;;;33.92;;
52764;SDS011;38650;44.536;18.664;2023-03-13T06:28:58;124.75;;;84.32;;
52764;SDS011;38650;44.536;18.664;2023-03-13T06:31:23;103.93;;;75.50;;
52764;SDS011;38650;44.536;18.664;2023-03-13T06:33:55;94.40;;;66.20;;
52764;SDS011;38650;44.536;18.664;2023-03-13T06:36:21;93.55;;;63.50;;
52764;SDS011;38650;44.536;18.664;2023-03-13T06:38:48;96.85;;;62.10;;
52764;SDS011;38650;44.536;18.664;2023-03-13T06:41:15;71.20;;;48.50;;
52764;SDS011;38650;44.536;18.664;2023-03-13T06:43:41;64.40;;;45.33;;
52764;SDS011;38650;44.536;18.664;2023-03-13T06:46:07;58.80;;;42.10;;
52764;SDS011;38650;44.536;18.664;2023-03-13T06:48:44;62.38;;;44.53;;
52764;SDS011;38650;44.536;18.664;2023-03-13T06:51:11;64.13;;;44.47;;
52764;SDS011;38650;44.536;18.664;2023-03-13T06:53:37;70.30;;;45.35;;
52764;SDS011;38650;44.536;18.664;2023-03-13T06:56:04;56.00;;;40.97;;
52764;SDS011;38650;44.536;18.664;2023-03-13T06:58:30;62.58;;;43.08;;
52764;SDS011;38650;44.536;18.664;2023-03-13T07:00:55;56.17;;;40.30;;
52764;SDS011;38650;44.536;18.664;2023-03-13T07:03:21;43.90;;;34.53;;
52764;SDS011;38650;44.536;18.664;2023-03-13T07:05:56;34.78;;;29.08;;
52764;SDS011;38650;44.536;18.664;2023-03-13T07:08:23;30.35;;;26.17;;
52764;SDS011;38650;44.536;18.664;2023-03-13T07:10:52;33.35;;;26.15;;
52764;SDS011;38650;44.536;18.664;2023-03-13T07:13:18;26.25;;;22.25;;
52764;SDS011;38650;44.536;18.664;2023-03-13T07:15:46;23.20;;;20.73;;
52764;SDS011;38650;44.536;18.664;2023-03-13T07:18:12;31.45;;;25.00;;
52764;SDS011;38650;44.536;18.664;2023-03-13T07:20:38;22.77;;;20.38;;
52764;SDS011;38650;44.536;18.664;2023-03-13T07:23:04;22.92;;;20.42;;
52764;SDS011;38650;44.536;18.664;2023-03-13T07:25:30;22.38;;;19.83;;
52764;SDS011;38650;44.536;18.664;2023-03-13T07:27:56;20.13;;;18.02;;
52764;SDS011;38650;44.536;18.664;2023-03-13T07:30:21;21.60;;;19.20;;
52764;SDS011;38650;44.536;18.664;2023-03-13T07:32:47;22.63;;;20.23;;
52764;SDS011;38650;44.536;18.664;2023-03-13T07:35:13;21.95;;;19.65;;
52764;SDS011;38650;44.536;18.664;2023-03-13T07:37:39;33.35;;;28.25;;
52764;SDS011;38650;44.536;18.664;2023-03-13T07:40:05;34.55;;;29.80;;
52764;SDS011;38650;44.536;18.664;2023-03-13T07:45:56;35.67;;;31.38;;
52764;SDS011;38650;44.536;18.664;2023-03-13T07:48:30;33.67;;;30.15;;
52764;SDS011;38650;44.536;18.664;2023-03-13T07:51:00;30.83;;;26.83;;
52764;SDS011;38650;44.536;18.664;2023-03-13T07:53:27;26.67;;;23.98;;
52764;SDS011;38650;44.536;18.664;2023-03-13T07:55:57;24.58;;;22.08;;
52764;SDS011;38650;44.536;18.664;2023-03-13T07:58:24;23.60;;;21.08;;
52764;SDS011;38650;44.536;18.664;2023-03-13T08:00:51;21.58;;;19.27;;
52764;SDS011;38650;44.536;18.664;2023-03-13T08:03:18;20.17;;;18.08;;
52764;SDS011;38650;44.536;18.664;2023-03-13T08:05:44;19.05;;;16.77;;
52764;SDS011;38650;44.536;18.664;2023-03-13T08:08:10;18.83;;;16.85;;
52764;SDS011;38650;44.536;18.664;2023-03-13T08:10:38;16.67;;;15.02;;
52764;SDS011;38650;44.536;18.664;2023-03-13T08:13:04;15.40;;;13.90;;
52764;SDS011;38650;44.536;18.664;2023-03-13T08:15:31;13.98;;;12.68;;
52764;SDS011;38650;44.536;18.664;2023-03-13T08:17:58;13.95;;;12.55;;
52764;SDS011;38650;44.536;18.664;2023-03-13T08:20:28;13.95;;;12.55;;
52764;SDS011;38650;44.536;18.664;2023-03-13T08:22:58;14.75;;;13.25;;
52764;SDS011;38650;44.536;18.664;2023-03-13T08:25:31;16.75;;;15.05;;
52764;SDS011;38650;44.536;18.664;2023-03-13T08:28:01;16.75;;;15.05;;
52764;SDS011;38650;44.536;18.664;2023-03-13T08:30:41;19.58;;;17.70;;
52764;SDS011;38650;44.536;18.664;2023-03-13T08:33:58;19.48;;;17.58;;
52764;SDS011;38650;44.536;18.664;2023-03-13T08:36:25;22.52;;;20.30;;
52764;SDS011;38650;44.536;18.664;2023-03-13T08:39:00;22.65;;;20.25;;
52764;SDS011;38650;44.536;18.664;2023-03-13T08:41:30;18.95;;;17.05;;
52764;SDS011;38650;44.536;18.664;2023-03-13T08:44:01;22.23;;;17.17;;
52764;SDS011;38650;44.536;18.664;2023-03-13T08:46:33;17.17;;;15.48;;
52764;SDS011;38650;44.536;18.664;2023-03-13T08:49:02;21.45;;;18.42;;
52764;SDS011;38650;44.536;18.664;2023-03-13T08:51:29;24.10;;;20.83;;
52764;SDS011;38650;44.536;18.664;2023-03-13T08:53:55;23.15;;;20.65;;
52764;SDS011;38650;44.536;18.664;2023-03-13T08:56:25;22.63;;;20.08;;
52764;SDS011;38650;44.536;18.664;2023-03-13T08:58:53;20.42;;;18.23;;
52764;SDS011;38650;44.536;18.664;2023-03-13T09:01:21;19.80;;;17.73;;
52764;SDS011;38650;44.536;18.664;2023-03-13T09:03:49;16.83;;;15.13;;
52764;SDS011;38650;44.536;18.664;2023-03-13T09:06:15;13.73;;;12.38;;
52764;SDS011;38650;44.536;18.664;2023-03-13T09:08:41;13.57;;;11.95;;
52764;SDS011;38650;44.536;18.664;2023-03-13T09:11:11;14.95;;;13.45;;
52764;SDS011;38650;44.536;18.664;2023-03-13T09:13:39;14.35;;;12.85;;
52764;SDS011;38650;44.536;18.664;2023-03-13T09:16:08;14.60;;;13.10;;
52764;SDS011;38650;44.536;18.664;2023-03-13T09:18:36;17.25;;;13.45;;
52764;SDS011;38650;44.536;18.664;2023-03-13T09:21:02;11.43;;;10.18;;
52764;SDS011;38650;44.536;18.664;2023-03-13T09:23:34;9.77;;;8.75;;
52764;SDS011;38650;44.536;18.664;2023-03-13T09:26:07;9.38;;;8.07;;
52764;SDS011;38650;44.536;18.664;2023-03-13T09:28:39;6.03;;;5.32;;
52764;SDS011;38650;44.536;18.664;2023-03-13T09:33:59;6.22;;;5.60;;
52764;SDS011;38650;44.536;18.664;2023-03-13T09:36:26;6.63;;;5.90;;
52764;SDS011;38650;44.536;18.664;2023-03-13T09:38:53;6.53;;;5.93;;
52764;SDS011;38650;44.536;18.664;2023-03-13T09:41:23;6.10;;;5.50;;
52764;SDS011;38650;44.536;18.664;2023-03-13T09:43:50;6.60;;;5.93;;
52764;SDS011;38650;44.536;18.664;2023-03-13T09:46:25;6.78;;;6.05;;
52764;SDS011;38650;44.536;18.664;2023-03-13T09:49:09;6.88;;;6.13;;
52764;SDS011;38650;44.536;18.664;2023-03-13T09:51:39;6.72;;;6.13;;
52764;SDS011;38650;44.536;18.664;2023-03-13T09:54:22;7.07;;;6.18;;
52764;SDS011;38650;44.536;18.664;2023-03-13T09:57:39;8.75;;;6.82;;
52764;SDS011;38650;44.536;18.664;2023-03-13T09:59:47;6.75;;;6.05;;
52764;SDS011;38650;44.536;18.664;2023-03-13T10:02:32;6.50;;;5.90;;
52764;SDS011;38650;44.536;18.664;2023-03-13T10:05:42;7.20;;;6.50;;
52764;SDS011;38650;44.536;18.664;2023-03-13T10:07:50;7.10;;;6.38;;
52764;SDS011;38650;44.536;18.664;2023-03-13T10:13:21;7.68;;;6.38;;
52764;SDS011;38650;44.536;18.664;2023-03-13T10:16:00;6.88;;;6.18;;
52764;SDS011;38650;44.536;18.664;2023-03-13T10:18:33;8.70;;;6.38;;
52764;SDS011;38650;44.536;18.664;2023-03-13T10:21:01;6.28;;;5.68;;
52764;SDS011;38650;44.536;18.664;2023-03-13T10:23:46;6.88;;;6.07;;
52764;SDS011;38650;44.536;18.664;2023-03-13T10:26:18;6.43;;;5.82;;
52764;SDS011;38650;44.536;18.664;2023-03-13T10:29:00;6.20;;;5.60;;
52764;SDS011;38650;44.536;18.664;2023-03-13T10:31:39;6.03;;;5.53;;
52764;SDS011;38650;44.536;18.664;2023-03-13T10:34:12;5.70;;;5.20;;
52764;SDS011;38650;44.536;18.664;2023-03-13T10:36:41;5.15;;;4.75;;
52764;SDS011;38650;44.536;18.664;2023-03-13T10:39:13;4.63;;;4.22;;
52764;SDS011;38650;44.536;18.664;2023-03-13T10:41:40;4.60;;;4.20;;
52764;SDS011;38650;44.536;18.664;2023-03-13T10:44:14;4.68;;;4.25;;
52764;SDS011;38650;44.536;18.664;2023-03-13T10:46:42;4.28;;;3.90;;
52764;SDS011;38650;44.536;18.664;2023-03-13T10:52:33;3.28;;;3.00;;
52764;SDS011;38650;44.536;18.664;2023-03-13T10:55:01;3.42;;;3.13;;
52764;SDS011;38650;44.536;18.664;2023-03-13T10:57:40;2.92;;;2.60;;
52764;SDS011;38650;44.536;18.664;2023-03-13T11:02:55;2.45;;;2.22;;
52764;SDS011;38650;44.536;18.664;2023-03-13T11:07:52;2.08;;;1.88;;
52764;SDS011;38650;44.536;18.664;2023-03-13T11:10:20;7.55;;;6.25;;
52764;SDS011;38650;44.536;18.664;2023-03-13T11:12:47;4.28;;;3.88;;
52764;SDS011;38650;44.536;18.664;2023-03-13T11:18:12;2.67;;;2.05;;
52764;SDS011;38650;44.536;18.664;2023-03-13T11:20:54;1.90;;;1.70;;
52764;SDS011;38650;44.536;18.664;2023-03-13T11:25:57;1.33;;;1.00;;
52764;SDS011;38650;44.536;18.664;2023-03-13T11:31:35;1.30;;;0.80;;
52764;SDS011;38650;44.536;18.664;2023-03-13T11:34:10;1.08;;;0.98;;
52764;SDS011;38650;44.536;18.664;2023-03-13T11:37:10;0.80;;;0.80;;
52764;SDS011;38650;44.536;18.664;2023-03-13T11:42:58;1.10;;;0.98;;
52764;SDS011;38650;44.536;18.664;2023-03-13T11:45:46;1.02;;;0.93;;
52764;SDS011;38650;44.536;18.664;2023-03-13T11:57:13;0.98;;;0.82;;
52764;SDS011;38650;44.536;18.664;2023-03-13T11:59:52;0.70;;;0.70;;
52764;SDS011;38650;44.536;18.664;2023-03-13T12:02:52;0.50;;;0.50;;
52764;SDS011;38650;44.536;18.664;2023-03-13T12:05:40;0.77;;;0.50;;
52764;SDS011;38650;44.536;18.664;2023-03-13T12:08:58;0.75;;;0.70;;
52764;SDS011;38650;44.536;18.664;2023-03-13T12:11:14;0.60;;;0.60;;
52764;SDS011;38650;44.536;18.664;2023-03-13T12:16:22;0.80;;;0.80;;
52764;SDS011;38650;44.536;18.664;2023-03-13T12:18:55;0.80;;;0.80;;
52764;SDS011;38650;44.536;18.664;2023-03-13T12:21:25;0.70;;;0.70;;
52764;SDS011;38650;44.536;18.664;2023-03-13T12:26:43;0.90;;;0.90;;
52764;SDS011;38650;44.536;18.664;2023-03-13T12:32:14;1.85;;;1.00;;
52764;SDS011;38650;44.536;18.664;2023-03-13T12:35:14;1.90;;;1.70;;
52764;SDS011;38650;44.536;18.664;2023-03-13T12:42:53;0.95;;;0.85;;
52764;SDS011;38650;44.536;18.664;2023-03-13T12:45:20;0.88;;;0.82;;
52764;SDS011;38650;44.536;18.664;2023-03-13T13:01:18;0.68;;;0.68;;
52764;SDS011;38650;44.536;18.664;2023-03-13T13:03:57;0.70;;;0.70;;
52764;SDS011;38650;44.536;18.664;2023-03-13T13:09:18;1.75;;;0.90;;
52764;SDS011;38650;44.536;18.664;2023-03-13T13:11:56;1.10;;;1.00;;
52764;SDS011;38650;44.536;18.664;2023-03-13T13:17:18;1.40;;;1.30;;
52764;SDS011;38650;44.536;18.664;2023-03-13T13:19:51;1.60;;;1.50;;
52764;SDS011;38650;44.536;18.664;2023-03-13T13:25:46;1.50;;;1.38;;
52764;SDS011;38650;44.536;18.664;2023-03-13T13:28:20;1.30;;;1.20;;
52764;SDS011;38650;44.536;18.664;2023-03-13T13:30:51;1.20;;;1.10;;
52764;SDS011;38650;44.536;18.664;2023-03-13T13:36:52;0.85;;;0.85;;
52764;SDS011;38650;44.536;18.664;2023-03-13T13:38:53;1.20;;;1.10;;
52764;SDS011;38650;44.536;18.664;2023-03-13T13:43:49;0.95;;;0.90;;
52764;SDS011;38650;44.536;18.664;2023-03-13T13:46:47;1.20;;;1.10;;
52764;SDS011;38650;44.536;18.664;2023-03-13T13:49:15;1.83;;;1.00;;
52764;SDS011;38650;44.536;18.664;2023-03-13T13:52:31;1.33;;;1.10;;
52764;SDS011;38650;44.536;18.664;2023-03-13T13:57:15;0.80;;;0.80;;
52764;SDS011;38650;44.536;18.664;2023-03-13T13:59:45;0.70;;;0.70;;
52764;SDS011;38650;44.536;18.664;2023-03-13T14:02:18;1.23;;;0.70;;
52764;SDS011;38650;44.536;18.664;2023-03-13T14:04:51;1.00;;;0.90;;
52764;SDS011;38650;44.536;18.664;2023-03-13T14:12:54;1.33;;;1.08;;
52764;SDS011;38650;44.536;18.664;2023-03-13T14:15:26;0.75;;;0.75;;
52764;SDS011;38650;44.536;18.664;2023-03-13T14:20:33;0.95;;;0.80;;
52764;SDS011;38650;44.536;18.664;2023-03-13T14:23:08;0.80;;;0.80;;
52764;SDS011;38650;44.536;18.664;2023-03-13T14:25:48;0.60;;;0.60;;
52764;SDS011;38650;44.536;18.664;2023-03-13T14:28:22;0.70;;;0.70;;
52764;SDS011;38650;44.536;18.664;2023-03-13T14:30:50;1.45;;;0.77;;
52764;SDS011;38650;44.536;18.664;2023-03-13T14:33:18;1.20;;;0.70;;
52764;SDS011;38650;44.536;18.664;2023-03-13T14:35:44;1.25;;;0.65;;
52764;SDS011;38650;44.536;18.664;2023-03-13T14:38:21;0.60;;;0.60;;
52764;SDS011;38650;44.536;18.664;2023-03-13T14:40:49;1.80;;;0.70;;
52764;SDS011;38650;44.536;18.664;2023-03-13T14:43:18;90.03;;;80.68;;
52764;SDS011;38650;44.536;18.664;2023-03-13T14:45:47;101.25;;;92.68;;
52764;SDS011;38650;44.536;18.664;2023-03-13T14:48:17;79.07;;;72.25;;
52764;SDS011;38650;44.536;18.664;2023-03-13T14:50:43;90.90;;;83.30;;
52764;SDS011;38650;44.536;18.664;2023-03-13T14:53:15;68.10;;;62.90;;
52764;SDS011;38650;44.536;18.664;2023-03-13T14:55:46;25.20;;;23.25;;
52764;SDS011;38650;44.536;18.664;2023-03-13T15:00:45;24.08;;;22.25;;
52764;SDS011;38650;44.536;18.664;2023-03-13T15:05:45;24.58;;;22.52;;
52764;SDS011;38650;44.536;18.664;2023-03-13T15:08:13;27.02;;;24.42;;
52764;SDS011;38650;44.536;18.664;2023-03-13T15:10:47;19.60;;;17.85;;
52764;SDS011;38650;44.536;18.664;2023-03-13T15:15:49;20.85;;;19.05;;
52764;SDS011;38650;44.536;18.664;2023-03-13T15:18:17;26.75;;;24.30;;
52764;SDS011;38650;44.536;18.664;2023-03-13T15:20:55;16.55;;;15.15;;
52764;SDS011;38650;44.536;18.664;2023-03-13T15:23:23;28.23;;;25.52;;
52764;SDS011;38650;44.536;18.664;2023-03-13T15:25:49;30.10;;;27.23;;
52764;SDS011;38650;44.536;18.664;2023-03-13T15:28:16;28.08;;;25.50;;
52764;SDS011;38650;44.536;18.664;2023-03-13T15:30:44;20.83;;;19.13;;
52764;SDS011;38650;44.536;18.664;2023-03-13T15:33:16;21.13;;;19.35;;
52764;SDS011;38650;44.536;18.664;2023-03-13T15:35:45;49.53;;;44.57;;
52764;SDS011;38650;44.536;18.664;2023-03-13T15:38:12;41.90;;;37.70;;
52764;SDS011;38650;44.536;18.664;2023-03-13T15:40:42;43.22;;;38.78;;
52764;SDS011;38650;44.536;18.664;2023-03-13T15:43:09;30.10;;;26.85;;
52764;SDS011;38650;44.536;18.664;2023-03-13T15:45:35;32.42;;;29.13;;
52764;SDS011;38650;44.536;18.664;2023-03-13T15:48:13;41.15;;;36.78;;
52764;SDS011;38650;44.536;18.664;2023-03-13T15:50:39;73.25;;;65.25;;
52764;SDS011;38650;44.536;18.664;2023-03-13T15:53:10;105.80;;;94.55;;
52764;SDS011;38650;44.536;18.664;2023-03-13T15:55:40;91.25;;;81.32;;
52764;SDS011;38650;44.536;18.664;2023-03-13T15:58:07;57.40;;;51.10;;
52764;SDS011;38650;44.536;18.664;2023-03-13T16:00:35;72.57;;;60.05;;
52764;SDS011;38650;44.536;18.664;2023-03-13T16:03:00;55.95;;;44.33;;
52764;SDS011;38650;44.536;18.664;2023-03-13T16:05:26;60.97;;;48.80;;
52764;SDS011;38650;44.536;18.664;2023-03-13T16:07:53;59.03;;;50.00;;
52764;SDS011;38650;44.536;18.664;2023-03-13T16:10:21;56.65;;;49.08;;
52764;SDS011;38650;44.536;18.664;2023-03-13T16:12:48;62.55;;;55.47;;
52764;SDS011;38650;44.536;18.664;2023-03-13T16:15:14;54.03;;;47.83;;
52764;SDS011;38650;44.536;18.664;2023-03-13T16:17:40;49.65;;;44.45;;
52764;SDS011;38650;44.536;18.664;2023-03-13T16:20:39;43.05;;;38.38;;
52764;SDS011;38650;44.536;18.664;2023-03-13T16:22:58;53.40;;;47.53;;